• Join FlightAware (Why Join?)
  • Login
  • US Flag 
07:53AM EST


 

Airport Tracker/Info


-or-


 

Live Flight TrackerFlight Track Log ✈ N147SW ✈ 18-Jun-2014 ✈ KDAL - KPIE

Flight Track Log - Related Links

Times and Time Zones

All times are in EDT time to prevent confusion due to time zone crossing. See the N147SW flight status page for this flight to view local times or setup timezone preferences in your user account.

Time Position Orientation Groundspeed Altitude Reporting Facility
EDT Latitude Longitude Course Direction KTS MPH feet Rate Location/Type
06:40PM 32.8333 -96.8333 127° Southeast 158 182 1,300  Level Dallas / Fort Worth TRACON
06:41PM 32.8142 -96.8028 127° Southeast 179 206 3,700 3,360 Climbing Fort Worth Center
06:42PM 32.7850 -96.7425 120° Southeast 222 255 7,600 3,180 Climbing Fort Worth Center
06:43PM 32.8419 -96.6869 39° Northeast 286 329 10,300 2,880 Climbing Fort Worth Center
06:44PM 32.9175 -96.6239 35° Northeast 314 361 13,600 3,000 Climbing Fort Worth Center
06:45PM 32.9753 -96.5544 45° Northeast 316 364 16,500 2,400 Climbing Fort Worth Center
06:46PM 33.0203 -96.4447 64° Northeast 343 395 18,600 1,980 Climbing Fort Worth Center
06:47PM 33.0564 -96.3356 68° East 350 403 20,600 1,620 Climbing Fort Worth Center
06:48PM 33.0983 -96.2078 69° East 382 440 22,000 1,380 Climbing Fort Worth Center
06:49PM 33.1411 -96.0847 67° East 400 460 23,500 1,200 Climbing Fort Worth Center
06:50PM 33.1817 -95.9606 69° East 401 461 24,600 1,200 Climbing Fort Worth Center
06:51PM 33.2242 -95.8319 68° East 412 474 26,100 1,440 Climbing Fort Worth Center
06:52PM 33.2658 -95.7019 69° East 415 478 27,600 1,560 Climbing Fort Worth Center
06:53PM 33.2581 -95.5578 94° East 410 472 29,400 1,620 Climbing Fort Worth Center
06:54PM 33.2083 -95.4375 116° Southeast 407 468 31,000 1,500 Climbing Fort Worth Center
06:55PM 33.1553 -95.3175 118° Southeast 407 468 32,600 1,500 Climbing Fort Worth Center
06:56PM 33.1022 -95.1947 117° Southeast 414 476 34,200 1,680 Climbing Fort Worth Center
06:57PM 33.0375 -95.0464 117° Southeast 420 483 36,100 1,560 Climbing Fort Worth Center
06:58PM 32.9831 -94.9242 118° Southeast 420 483 37,500 1,500 Climbing Fort Worth Center
06:59PM 32.9289 -94.7992 117° Southeast 426 490 39,200 1,680 Climbing Fort Worth Center
07:00PM 32.8750 -94.6775 118° Southeast 421 484 41,000 840 Climbing Fort Worth Center
07:01PM 32.8192 -94.5514 118° Southeast 435 501 41,000  Level Fort Worth Center
07:02PM 32.7492 -94.3903 117° Southeast 463 533 41,000  Level Fort Worth Center
07:04PM 32.6878 -94.2517 118° Southeast 475 547 41,000  Level Fort Worth Center
07:05PM 32.6253 -94.1111 118° Southeast 482 555 41,000  Level Fort Worth Center
07:06PM 32.5619 -93.9703 118° Southeast 485 558 41,000  Level Fort Worth Center
07:07PM 32.4978 -93.8303 118° Southeast 486 559 41,000  Level Fort Worth Center
07:08PM 32.4206 -93.6592 118° Southeast 495 570 41,000  Level Fort Worth Center
07:09PM 32.3578 -93.5153 117° Southeast 487 560 41,000  Level Fort Worth Center
07:10PM 32.2869 -93.3778 121° Southeast 494 568 41,000  Level Fort Worth Center
07:11PM 32.2025 -93.2539 129° Southeast 484 557 41,000  Level Fort Worth Center
07:12PM 32.1092 -93.1175 129° Southeast 487 560 41,000  Level Fort Worth Center
07:13PM 32.0233 -92.9933 129° Southeast 483 556 41,000  Level Fort Worth Center
07:14PM 31.9353 -92.8672 129° Southeast 490 564 41,000  Level Fort Worth Center
07:15PM 31.8514 -92.7428 128° Southeast 489 563 41,000  Level Fort Worth Center
07:16PM 31.7469 -92.5947 130° Southeast 489 563 41,000  Level Fort Worth Center
07:17PM 31.6606 -92.4708 129° Southeast 489 563 41,000  Level Fort Worth Center
07:18PM 31.5700 -92.3406 129° Southeast 488 562 41,000  Level Fort Worth Center
07:19PM 31.4836 -92.2189 130° Southeast 487 560 41,000  Level Fort Worth Center
07:20PM 31.3994 -92.1014 130° Southeast 487 560 41,000  Level Fort Worth Center
07:21PM 31.3128 -91.9803 130° Southeast 487 560 41,000  Level Fort Worth Center
07:22PM 31.2264 -91.8603 130° Southeast 485 558 41,000 300 Level Fort Worth Center
07:23PM 31.1236 -91.7153 130° Southeast 483 556 41,700 960 Climbing Fort Worth Center
07:24PM 31.0419 -91.6025 130° Southeast 463 533 43,000 600 Climbing Fort Worth Center
07:25PM 30.9586 -91.4861 130° Southeast 461 531 43,000  Level Fort Worth Center
07:27PM 30.8547 -91.3436 130° Southeast 479 551 43,000  Level Houston Center
07:28PM 30.7664 -91.2214 130° Southeast 490 564 43,000  Level Houston Center
07:29PM 30.6708 -91.0886 130° Southeast 490 564 43,000  Level Houston Center
07:30PM 30.5808 -90.9658 130° Southeast 496 571 43,000  Level Houston Center
07:31PM 30.4936 -90.8467 130° Southeast 490 564 43,000  Level Houston Center
07:32PM 30.3886 -90.7039 130° Southeast 489 563 43,000  Level Houston Center
07:33PM 30.3014 -90.5861 131° Southeast 487 560 43,000  Level Houston Center
07:34PM 30.2147 -90.4683 130° Southeast 486 559 43,000  Level Houston Center
07:35PM 30.1281 -90.3519 131° Southeast 485 558 43,000  Level Houston Center
07:36PM 30.0242 -90.2117 131° Southeast 485 558 43,000  Level Houston Center
07:37PM 29.9369 -90.0947 131° Southeast 485 558 43,000  Level Houston Center
07:38PM 29.8494 -89.9758 130° Southeast 486 559 43,000  Level Houston Center
07:39PM 29.7611 -89.8578 131° Southeast 488 562 43,000  Level Houston Center
07:40PM 29.6994 -89.7167 117° Southeast 496 571 43,000  Level Houston Center
07:41PM 29.6256 -89.5486 117° Southeast 495 570 43,000  Level Houston Center
07:42PM 29.5631 -89.4081 117° Southeast 495 570 43,000  Level Houston Center
07:43PM 29.5014 -89.2678 117° Southeast 495 570 43,000  Level Houston Center
07:44PM 29.4378 -89.1289 118° Southeast 495 570 43,000  Level Houston Center
07:45PM 29.3764 -88.9881 117° Southeast 495 570 43,000  Level Houston Center
07:46PM 29.3000 -88.8208 118° Southeast 495 570 43,000  Level Houston Center
07:47PM 29.2356 -88.6800 118° Southeast 498 573 43,000  Level Houston Center
07:48PM 29.1714 -88.5408 118° Southeast 498 573 43,000  Level Houston Center
07:49PM 29.1089 -88.4006 117° Southeast 498 573 43,000  Level Houston Center
07:50PM 29.0442 -88.2608 118° Southeast 498 573 43,000  Level Houston Center
07:51PM 28.9803 -88.1225 118° Southeast 497 572 43,000  Level Houston Center
07:52PM 28.9108 -87.9719 118° Southeast 494 568 43,000  Level Houston Center
07:53PM 28.8469 -87.8328 118° Southeast 494 568 43,000  Level Houston Center
07:54PM 28.7694 -87.6664 118° Southeast 495 570 43,000  Level Houston Center
07:56PM 28.7056 -87.5303 118° Southeast 494 568 43,000  Level Houston Center
07:57PM 28.6408 -87.3931 118° Southeast 494 568 43,000  Level Houston Center
07:58PM 28.5775 -87.2558 118° Southeast 491 565 43,000  Level Houston Center
07:59PM 28.5119 -87.1186 119° Southeast 491 565 43,000  Level Houston Center
08:00PM 28.4478 -86.9833 118° Southeast 492 566 43,000  Level Houston Center
08:01PM 28.3697 -86.8181 118° Southeast 492 566 43,000  Level Houston Center
08:02PM 28.3014 -86.6597 116° Southeast 492 566 43,000  Level Jacksonville Center
08:03PM 28.2594 -86.5167 108° East 474 545 43,000  Level Jacksonville Center
08:04PM 28.2175 -86.3761 109° East 474 545 43,000  Level Jacksonville Center
08:05PM 28.1736 -86.2264 108° East 474 545 43,000  Level Jacksonville Center
08:06PM 28.1311 -86.0861 109° East 474 545 43,000  Level Jacksonville Center
08:07PM 28.0889 -85.9389 108° East 474 545 43,000  Level Jacksonville Center
08:08PM 28.0461 -85.7967 109° East 481 554 43,000 -540 Level Jacksonville Center
08:09PM 28.0036 -85.6544 109° East 481 554 42,000 -1,560 Descending Jacksonville Center
08:11PM 27.9550 -85.3317 100° East 488 562 38,000 -1,560 Descending Miami Center
08:12PM 27.9567 -85.1867 89° East 478 550 37,000 -540 Descending Miami Center
08:13PM 27.9525 -85.0375 92° East 478 550 37,000 -60 Level Miami Center
08:14PM 27.9519 -84.8922 90° East 473 544 36,900 -1,020 Descending Miami Center
08:15PM 27.9497 -84.7322 91° East 471 542 35,000 -2,220 Descending Miami Center
08:16PM 27.9481 -84.5806 91° East 478 550 32,500 -2,460 Descending Miami Center
08:17PM 27.9447 -84.4297 91° East 480 552 30,100 -2,640 Descending Miami Center
08:18PM 27.9408 -84.2461 91° East 484 557 27,200 -2,640 Descending Miami Center
08:19PM 27.9381 -84.0928 91° East 486 559 24,800 -2,400 Descending Miami Center
08:20PM 27.9339 -83.9408 92° East 486 559 22,400 -2,400 Descending Miami Center
08:21PM 27.9300 -83.7925 92° East 477 549 20,000 -2,340 Descending Miami Center
08:22PM 27.9278 -83.6517 91° East 455 524 17,700 -2,100 Descending Miami Center
08:23PM 27.9253 -83.5181 91° East 428 493 15,700 -1,740 Descending Miami Center
08:24PM 27.9225 -83.4122 92° East 342 394 14,200 -1,680 Descending Miami Center
08:25PM 27.9472 -83.3239 72° East 300 345 12,300 -1,920 Descending Miami Center
08:26PM 27.9706 -83.2397 73° East 288 331 10,300 -2,040 Descending Miami Center
08:27PM 27.9939 -83.1611 71° East 274 315 8,200 -2,040 Descending Miami Center
08:28PM 28.0153 -83.0853 72° East 263 303 6,200 -1,740 Descending Miami Center
08:29PM 28.0414 -82.9997 71° East 249 287 4,700 -1,140 Descending Miami Center
08:31PM 28.0592 -82.9264 75° East 243 280 4,000 -720 Descending Miami Center
08:31PM 28.0667 -82.8667 82° East 258 297 3,600 -660 Descending Tampa TRACON
08:32PM 28.0667 -82.7833 90° East 229 264 2,800 -840 Descending Tampa TRACON
08:33PM 28.0500 -82.7333 111° Southeast 193 222 1,900 -660 Descending Tampa TRACON
08:34PM 28.0000 -82.7167 164° South 175 201 1,600 -540 Descending Tampa TRACON
08:35PM 27.9667 -82.7000 156° South 164 189 900 -720 Descending Tampa TRACON
08:39PM 27.9100 -82.6875 180° South  Level Estimated